Time;durP1;ratioP1;P1;durP2;ratioP2;P2;SDS_P1;SDS_P2;PMS_P1;PMS_P2;Temp;Humidity;BMP_temperature;BMP_pressure;BME280_temperature;BME280_humidity;BME280_pressure;Samples;Min_cycle;Max_cycle;Signal;HPM_P1;HPM_P2
2021/10/16 00:00:52;;;;;;;2.21;2.01;;;;;;;19.88;63.43;100860.13;;;;-52
2021/10/16 00:03:52;;;;;;;2.29;2.09;;;;;;;19.87;63.44;100858.31;;;;-52
2021/10/16 00:06:52;;;;;;;2.10;1.90;;;;;;;19.86;63.43;100863.77;;;;-52
2021/10/16 00:09:52;;;;;;;2.27;2.07;;;;;;;19.85;63.50;100860.57;;;;-52
2021/10/16 00:12:52;;;;;;;2.17;1.97;;;;;;;19.84;63.46;100861.71;;;;-52
2021/10/16 00:15:52;;;;;;;2.14;1.95;;;;;;;19.83;63.52;100864.61;;;;-61
2021/10/16 00:18:52;;;;;;;1.99;1.81;;;;;;;19.83;63.58;100866.23;;;;-61
2021/10/16 00:21:52;;;;;;;2.30;1.86;;;;;;;19.82;63.48;100866.45;;;;-52
2021/10/16 00:24:52;;;;;;;2.24;2.04;;;;;;;19.81;63.51;100865.73;;;;-52
2021/10/16 00:27:52;;;;;;;2.01;1.81;;;;;;;19.81;63.56;100863.05;;;;-52
2021/10/16 00:30:53;;;;;;;1.93;1.76;;;;;;;19.79;63.55;100866.59;;;;-49
2021/10/16 00:33:52;;;;;;;2.13;1.92;;;;;;;19.78;63.57;100864.48;;;;-48
2021/10/16 00:36:52;;;;;;;2.15;1.95;;;;;;;19.78;63.60;100864.25;;;;-49
2021/10/16 00:39:52;;;;;;;1.90;1.80;;;;;;;19.76;63.60;100860.64;;;;-49
2021/10/16 00:42:52;;;;;;;2.13;1.90;;;;;;;19.76;63.68;100855.11;;;;-49
2021/10/16 00:45:52;;;;;;;2.25;1.87;;;;;;;19.75;63.63;100852.73;;;;-49
2021/10/16 00:48:52;;;;;;;2.17;1.97;;;;;;;19.74;63.62;100849.48;;;;-49
2021/10/16 00:51:52;;;;;;;2.15;1.90;;;;;;;19.73;63.69;100850.50;;;;-52
2021/10/16 00:54:52;;;;;;;2.01;1.89;;;;;;;19.73;63.59;100851.48;;;;-49
2021/10/16 00:57:53;;;;;;;2.00;1.90;;;;;;;19.71;63.66;100849.59;;;;-49
2021/10/16 01:00:52;;;;;;;2.06;1.91;;;;;;;19.71;63.63;100846.91;;;;-49
2021/10/16 01:03:52;;;;;;;1.99;1.89;;;;;;;19.70;63.67;100849.08;;;;-49
2021/10/16 01:06:52;;;;;;;2.61;2.01;;;;;;;19.70;63.64;100848.09;;;;-53
2021/10/16 01:09:53;;;;;;;2.06;1.89;;;;;;;19.69;63.66;100847.91;;;;-53
2021/10/16 01:12:52;;;;;;;2.23;2.03;;;;;;;19.68;63.67;100846.53;;;;-52
2021/10/16 01:15:52;;;;;;;2.15;1.99;;;;;;;19.68;63.67;100850.43;;;;-52
2021/10/16 01:18:52;;;;;;;2.09;1.90;;;;;;;19.67;63.71;100844.02;;;;-62
2021/10/16 01:21:55;;;;;;;2.27;2.07;;;;;;;19.66;63.72;100849.59;;;;-49
2021/10/16 01:24:52;;;;;;;1.90;1.80;;;;;;;19.66;63.78;100849.10;;;;-49
2021/10/16 01:27:52;;;;;;;2.10;1.90;;;;;;;19.64;63.72;100848.34;;;;-52
2021/10/16 01:30:53;;;;;;;2.30;2.10;;;;;;;19.64;63.72;100846.07;;;;-49
2021/10/16 01:33:53;;;;;;;2.49;2.20;;;;;;;19.63;63.67;100850.68;;;;-49
2021/10/16 01:41:42;;;;;;;2.09;1.99;;;;;;;19.61;63.78;100850.73;;;;-61
2021/10/16 01:44:42;;;;;;;2.46;2.02;;;;;;;19.60;63.71;100852.12;;;;-48
2021/10/16 01:47:42;;;;;;;2.30;2.10;;;;;;;19.60;63.77;100848.95;;;;-48
2021/10/16 01:50:42;;;;;;;2.00;1.80;;;;;;;19.58;63.69;100847.95;;;;-48
2021/10/16 01:53:42;;;;;;;1.96;1.86;;;;;;;19.58;63.76;100850.71;;;;-48
2021/10/16 01:56:42;;;;;;;2.16;1.96;;;;;;;19.57;63.78;100849.33;;;;-61
2021/10/16 01:59:42;;;;;;;1.93;1.83;;;;;;;19.57;63.78;100843.77;;;;-60
2021/10/16 02:02:42;;;;;;;2.31;2.11;;;;;;;19.56;63.74;100839.55;;;;-51
2021/10/16 02:05:42;;;;;;;2.18;1.90;;;;;;;19.55;63.78;100842.23;;;;-52
2021/10/16 02:08:42;;;;;;;2.04;1.90;;;;;;;19.55;63.76;100846.95;;;;-51
2021/10/16 02:11:42;;;;;;;2.43;2.23;;;;;;;19.54;63.75;100841.39;;;;-48
2021/10/16 02:14:42;;;;;;;2.07;1.87;;;;;;;19.53;63.78;100843.75;;;;-48
2021/10/16 02:17:42;;;;;;;2.18;2.00;;;;;;;19.53;63.78;100845.46;;;;-52
2021/10/16 02:20:42;;;;;;;2.36;2.11;;;;;;;19.53;63.76;100839.66;;;;-52
2021/10/16 02:23:42;;;;;;;2.10;1.90;;;;;;;19.52;63.79;100840.80;;;;-48
2021/10/16 02:26:42;;;;;;;2.37;2.17;;;;;;;19.52;63.76;100843.41;;;;-48
2021/10/16 02:29:42;;;;;;;2.10;1.90;;;;;;;19.50;63.79;100841.18;;;;-48
2021/10/16 02:32:42;;;;;;;2.17;1.97;;;;;;;19.50;63.82;100842.80;;;;-61
2021/10/16 02:35:42;;;;;;;1.97;1.85;;;;;;;19.49;63.83;100841.75;;;;-60
2021/10/16 02:38:42;;;;;;;2.19;1.99;;;;;;;19.49;63.80;100838.34;;;;-48
2021/10/16 02:41:42;;;;;;;2.29;2.09;;;;;;;19.48;63.81;100843.52;;;;-48
2021/10/16 02:44:42;;;;;;;2.21;2.01;;;;;;;19.48;63.77;100844.41;;;;-48
2021/10/16 02:47:42;;;;;;;2.30;2.10;;;;;;;19.47;63.80;100844.41;;;;-52
2021/10/16 02:50:42;;;;;;;2.16;1.97;;;;;;;19.47;63.81;100844.49;;;;-60
2021/10/16 02:53:42;;;;;;;2.16;1.96;;;;;;;19.47;63.84;100843.27;;;;-48
2021/10/16 02:56:42;;;;;;;2.33;2.13;;;;;;;19.46;63.80;100845.30;;;;-51
2021/10/16 02:59:42;;;;;;;3.50;2.05;;;;;;;19.45;63.83;100848.45;;;;-52
2021/10/16 03:02:42;;;;;;;2.25;2.05;;;;;;;19.45;63.79;100852.34;;;;-52
2021/10/16 03:05:42;;;;;;;2.34;2.14;;;;;;;19.44;63.83;100855.00;;;;-51
2021/10/16 03:08:42;;;;;;;2.22;2.02;;;;;;;19.45;63.83;100854.46;;;;-52
2021/10/16 03:11:42;;;;;;;2.31;2.11;;;;;;;19.44;63.83;100850.53;;;;-51
2021/10/16 03:14:42;;;;;;;2.40;2.08;;;;;;;19.43;63.83;100848.66;;;;-51
2021/10/16 03:17:42;;;;;;;2.10;1.91;;;;;;;19.43;63.79;100851.10;;;;-50
2021/10/16 03:20:42;;;;;;;2.13;1.93;;;;;;;19.42;63.81;100851.23;;;;-52
2021/10/16 03:23:42;;;;;;;2.42;2.13;;;;;;;19.41;63.85;100849.61;;;;-52
2021/10/16 03:26:42;;;;;;;2.29;2.09;;;;;;;19.41;63.86;100844.33;;;;-48
2021/10/16 03:29:42;;;;;;;2.09;1.93;;;;;;;19.41;63.79;100848.07;;;;-48
2021/10/16 03:32:42;;;;;;;2.09;1.89;;;;;;;19.39;63.79;100845.20;;;;-60
2021/10/16 03:35:42;;;;;;;2.31;2.11;;;;;;;19.39;63.82;100842.92;;;;-60
2021/10/16 03:38:42;;;;;;;2.66;2.07;;;;;;;19.39;63.83;100846.02;;;;-52
2021/10/16 03:41:42;;;;;;;2.07;1.96;;;;;;;19.37;63.78;100840.94;;;;-48
2021/10/16 03:44:42;;;;;;;2.25;2.05;;;;;;;19.37;63.79;100842.25;;;;-51
2021/10/16 03:47:42;;;;;;;2.30;2.10;;;;;;;19.37;63.84;100843.95;;;;-51
2021/10/16 03:50:42;;;;;;;2.30;2.10;;;;;;;19.37;63.82;100847.04;;;;-52
2021/10/16 03:53:42;;;;;;;2.31;2.11;;;;;;;19.35;63.83;100846.03;;;;-52
2021/10/16 03:56:42;;;;;;;2.21;2.01;;;;;;;19.35;63.91;100852.13;;;;-51
2021/10/16 03:59:43;;;;;;;2.16;1.95;;;;;;;19.34;63.84;100858.23;;;;-52
2021/10/16 04:02:46;;;;;;;2.16;1.96;;;;;;;19.34;63.86;100860.50;;;;-52
2021/10/16 04:05:42;;;;;;;2.42;2.21;;;;;;;19.34;63.86;100857.14;;;;-52
2021/10/16 04:08:42;;;;;;;2.30;2.10;;;;;;;19.33;63.83;100856.66;;;;-48
2021/10/16 04:11:42;;;;;;;2.07;1.90;;;;;;;19.33;63.82;100859.09;;;;-48
2021/10/16 04:14:42;;;;;;;2.30;2.10;;;;;;;19.32;63.84;100857.77;;;;-48
2021/10/16 04:17:44;;;;;;;2.20;2.00;;;;;;;19.32;63.85;100866.08;;;;-52
2021/10/16 04:20:42;;;;;;;2.18;1.98;;;;;;;19.31;63.84;100869.47;;;;-51
2021/10/16 04:23:42;;;;;;;2.81;2.01;;;;;;;19.30;63.85;100867.36;;;;-59
2021/10/16 04:26:42;;;;;;;2.39;2.16;;;;;;;19.30;63.84;100868.33;;;;-59
2021/10/16 04:29:42;;;;;;;1.99;1.89;;;;;;;19.30;63.82;100867.36;;;;-61
2021/10/16 04:32:42;;;;;;;2.23;2.03;;;;;;;19.28;63.83;100867.33;;;;-61
2021/10/16 04:35:42;;;;;;;2.17;1.97;;;;;;;19.29;63.84;100872.13;;;;-52
2021/10/16 04:38:45;;;;;;;2.22;2.02;;;;;;;19.28;63.85;100870.91;;;;-52
2021/10/16 04:41:42;;;;;;;2.03;1.87;;;;;;;19.28;63.86;100875.86;;;;-61
2021/10/16 04:44:42;;;;;;;2.15;1.95;;;;;;;19.28;63.89;100875.78;;;;-61
2021/10/16 04:47:42;;;;;;;2.14;1.98;;;;;;;19.28;63.94;100877.89;;;;-51
2021/10/16 04:50:42;;;;;;;2.02;1.92;;;;;;;19.29;63.87;100877.08;;;;-52
2021/10/16 04:53:42;;;;;;;1.98;1.88;;;;;;;19.29;63.90;100873.83;;;;-52
2021/10/16 04:56:41;;;;;;;1.99;1.83;;;;;;;19.30;63.90;100877.35;;;;-52
2021/10/16 04:59:42;;;;;;;2.09;1.90;;;;;;;19.31;63.88;100876.05;;;;-51
2021/10/16 05:02:42;;;;;;;2.13;1.95;;;;;;;19.33;63.85;100871.28;;;;-59
2021/10/16 05:05:42;;;;;;;2.14;1.94;;;;;;;19.35;63.83;100876.67;;;;-61
2021/10/16 05:08:42;;;;;;;1.85;1.75;;;;;;;19.36;63.87;100877.27;;;;-48
2021/10/16 05:11:42;;;;;;;2.63;2.23;;;;;;;19.37;63.04;100879.23;;;;-54
2021/10/16 05:14:42;;;;;;;7.99;7.07;;;;;;;18.99;58.64;100879.18;;;;-52
2021/10/16 05:17:42;;;;;;;9.13;8.16;;;;;;;18.71;57.86;100882.59;;;;-50
2021/10/16 05:20:42;;;;;;;11.22;8.96;;;;;;;18.63;57.17;100883.44;;;;-50
2021/10/16 05:23:42;;;;;;;11.77;9.21;;;;;;;18.52;57.27;100890.16;;;;-55
2021/10/16 05:26:42;;;;;;;9.95;8.82;;;;;;;18.31;57.17;100886.63;;;;-55
2021/10/16 05:29:42;;;;;;;10.73;8.84;;;;;;;18.34;56.71;100889.51;;;;-54
2021/10/16 05:32:42;;;;;;;13.79;12.43;;;;;;;18.16;56.51;100884.83;;;;-57
2021/10/16 05:35:43;;;;;;;12.83;8.07;;;;;;;18.23;57.61;100885.91;;;;-59
2021/10/16 05:38:42;;;;;;;9.96;7.77;;;;;;;18.37;58.46;100889.02;;;;-56
2021/10/16 05:41:42;;;;;;;9.23;6.89;;;;;;;18.49;58.98;100890.94;;;;-59
2021/10/16 05:44:42;;;;;;;8.31;6.27;;;;;;;18.58;59.72;100891.40;;;;-59
2021/10/16 05:47:42;;;;;;;6.16;5.55;;;;;;;18.67;60.04;100896.16;;;;-58
2021/10/16 05:50:42;;;;;;;6.84;5.62;;;;;;;18.74;60.27;100900.25;;;;-59
2021/10/16 05:53:42;;;;;;;5.66;5.06;;;;;;;18.80;60.45;100899.81;;;;-61
2021/10/16 05:56:42;;;;;;;5.58;4.76;;;;;;;18.85;60.61;100906.41;;;;-60
2021/10/16 05:59:42;;;;;;;6.52;4.93;;;;;;;18.90;60.79;100901.68;;;;-58
2021/10/16 06:02:42;;;;;;;5.05;4.54;;;;;;;18.93;60.91;100908.16;;;;-59
2021/10/16 06:05:41;;;;;;;5.34;4.34;;;;;;;18.97;61.00;100914.97;;;;-62
2021/10/16 06:08:42;;;;;;;4.80;4.25;;;;;;;19.01;61.10;100919.34;;;;-61
2021/10/16 06:11:42;;;;;;;5.17;4.15;;;;;;;19.03;61.21;100925.70;;;;-50
2021/10/16 06:14:42;;;;;;;4.73;4.05;;;;;;;19.06;61.27;100924.36;;;;-59
2021/10/16 06:17:42;;;;;;;5.31;4.30;;;;;;;19.07;61.28;100927.07;;;;-60
2021/10/16 06:20:42;;;;;;;5.89;3.85;;;;;;;19.08;61.29;100928.78;;;;-60
2021/10/16 06:23:42;;;;;;;4.27;3.56;;;;;;;19.09;61.27;100934.58;;;;-60
2021/10/16 06:26:42;;;;;;;4.09;3.69;;;;;;;19.10;61.34;100937.50;;;;-60
2021/10/16 06:29:42;;;;;;;4.39;3.65;;;;;;;19.11;61.48;100945.14;;;;-59
2021/10/16 06:32:42;;;;;;;3.69;3.21;;;;;;;19.12;61.46;100945.09;;;;-62
2021/10/16 06:35:42;;;;;;;4.01;3.61;;;;;;;19.14;61.46;100950.23;;;;-63
2021/10/16 06:38:42;;;;;;;3.89;3.40;;;;;;;19.14;61.57;100949.42;;;;-62
2021/10/16 06:41:42;;;;;;;4.69;3.43;;;;;;;19.15;61.61;100953.00;;;;-62
2021/10/16 06:44:42;;;;;;;4.15;3.51;;;;;;;19.16;61.65;100952.30;;;;-61
2021/10/16 06:47:42;;;;;;;4.12;3.32;;;;;;;19.17;61.70;100953.39;;;;-61
2021/10/16 06:50:42;;;;;;;3.35;3.05;;;;;;;19.18;61.71;100958.51;;;;-62
2021/10/16 06:53:42;;;;;;;5.45;3.25;;;;;;;19.17;61.78;100957.78;;;;-55
2021/10/16 06:56:41;;;;;;;3.29;2.99;;;;;;;19.19;61.83;100958.91;;;;-55
2021/10/16 06:59:42;;;;;;;3.48;3.18;;;;;;;19.19;61.83;100964.03;;;;-55
2021/10/16 07:02:42;;;;;;;3.29;2.99;;;;;;;19.20;61.84;100968.94;;;;-55
2021/10/16 07:05:42;;;;;;;3.45;3.15;;;;;;;19.21;61.87;100971.38;;;;-55
2021/10/16 07:08:42;;;;;;;3.56;3.16;;;;;;;19.21;61.93;100967.23;;;;-55
2021/10/16 07:11:42;;;;;;;3.42;3.12;;;;;;;19.21;61.91;100969.59;;;;-55
2021/10/16 07:14:42;;;;;;;3.64;3.03;;;;;;;19.22;61.97;100972.39;;;;-54
2021/10/16 07:17:42;;;;;;;3.21;2.91;;;;;;;19.21;61.98;100972.84;;;;-63
2021/10/16 07:20:42;;;;;;;3.18;2.88;;;;;;;19.22;61.99;100981.00;;;;-62
2021/10/16 07:23:45;;;;;;;3.46;2.92;;;;;;;19.23;62.02;100984.49;;;;-62
2021/10/16 07:26:42;;;;;;;4.35;2.96;;;;;;;19.22;62.05;100980.19;;;;-61
2021/10/16 07:29:42;;;;;;;3.15;2.83;;;;;;;19.23;62.04;100982.22;;;;-62
2021/10/16 07:32:42;;;;;;;3.35;3.05;;;;;;;19.22;62.11;100989.13;;;;-63
2021/10/16 07:35:42;;;;;;;3.49;3.19;;;;;;;19.23;62.12;100996.19;;;;-62
2021/10/16 07:38:42;;;;;;;3.05;2.77;;;;;;;19.23;62.09;101000.58;;;;-62
2021/10/16 07:41:42;;;;;;;3.11;2.82;;;;;;;19.23;62.12;101004.08;;;;-63
2021/10/16 07:44:42;;;;;;;3.03;2.71;;;;;;;19.23;62.10;101005.38;;;;-62
2021/10/16 07:47:42;;;;;;;3.07;2.77;;;;;;;19.24;62.16;101008.90;;;;-61
2021/10/16 07:50:41;;;;;;;2.97;2.73;;;;;;;19.23;62.12;101007.81;;;;-63
2021/10/16 07:53:42;;;;;;;3.03;2.73;;;;;;;19.24;62.19;101012.64;;;;-62
2021/10/16 07:56:42;;;;;;;3.07;2.80;;;;;;;19.24;62.14;101013.62;;;;-64
2021/10/16 07:59:42;;;;;;;3.21;2.80;;;;;;;19.24;62.21;101014.02;;;;-63
2021/10/16 08:02:42;;;;;;;3.65;2.90;;;;;;;19.24;62.18;101015.89;;;;-62
2021/10/16 08:05:41;;;;;;;2.97;2.50;;;;;;;19.24;62.21;101017.92;;;;-61
2021/10/16 08:08:42;;;;;;;3.63;2.74;;;;;;;19.24;62.21;101017.52;;;;-52
2021/10/16 08:11:42;;;;;;;2.73;2.50;;;;;;;19.24;62.22;101019.47;;;;-53
2021/10/16 08:14:42;;;;;;;3.02;2.71;;;;;;;19.24;62.24;101021.09;;;;-52
2021/10/16 08:17:42;;;;;;;2.89;2.69;;;;;;;19.24;62.22;101020.52;;;;-55
2021/10/16 08:20:41;;;;;;;2.88;2.63;;;;;;;19.24;62.21;101018.57;;;;-60
2021/10/16 08:23:42;;;;;;;2.77;2.57;;;;;;;19.25;62.20;101012.48;;;;-59
2021/10/16 08:26:42;;;;;;;5.42;2.83;;;;;;;19.26;62.47;101015.52;;;;-57
2021/10/16 08:29:42;;;;;;;4.16;2.69;;;;;;;19.27;63.02;101017.71;;;;-51
2021/10/16 08:32:42;;;;;;;4.29;2.84;;;;;;;19.29;62.86;101019.70;;;;-50
2021/10/16 08:35:41;;;;;;;2.90;2.56;;;;;;;19.31;62.95;101022.81;;;;-49
2021/10/16 08:38:42;;;;;;;3.85;2.52;;;;;;;19.33;63.04;101023.34;;;;-47
2021/10/16 08:41:42;;;;;;;3.12;2.57;;;;;;;19.35;62.93;101022.56;;;;-47
2021/10/16 08:44:42;;;;;;;2.71;2.51;;;;;;;19.37;63.11;101027.63;;;;-51
2021/10/16 08:47:41;;;;;;;2.85;2.55;;;;;;;19.40;62.46;101029.45;;;;-55
2021/10/16 08:50:41;;;;;;;6.84;2.52;;;;;;;19.41;61.81;101030.37;;;;-53
2021/10/16 08:53:42;;;;;;;3.57;2.45;;;;;;;19.45;62.44;101031.98;;;;-56
2021/10/16 08:56:42;;;;;;;2.75;2.33;;;;;;;19.49;62.69;101030.50;;;;-59
2021/10/16 08:59:42;;;;;;;2.83;2.49;;;;;;;19.54;63.01;101029.92;;;;-58
2021/10/16 09:02:41;;;;;;;3.27;2.40;;;;;;;19.57;62.96;101026.64;;;;-60
2021/10/16 09:05:42;;;;;;;2.38;2.18;;;;;;;19.62;63.19;101027.60;;;;-60
2021/10/16 09:08:42;;;;;;;3.63;2.29;;;;;;;19.67;63.16;101032.90;;;;-59
2021/10/16 09:11:44;;;;;;;3.37;2.30;;;;;;;19.73;63.21;101031.28;;;;-52
2021/10/16 09:14:42;;;;;;;2.92;2.09;;;;;;;19.76;63.41;101033.70;;;;-53
2021/10/16 09:17:49;;;;;;;3.33;2.55;;;;;;;19.81;63.18;101032.45;;;;-51
2021/10/16 09:20:42;;;;;;;2.37;2.11;;;;;;;19.85;63.41;101031.30;;;;-50
2021/10/16 09:23:41;;;;;;;2.45;2.18;;;;;;;19.90;63.25;101025.49;;;;-51
2021/10/16 09:26:42;;;;;;;2.33;2.05;;;;;;;19.95;63.47;101027.20;;;;-58
2021/10/16 09:29:42;;;;;;;3.11;2.11;;;;;;;20.02;63.31;101031.68;;;;-51
2021/10/16 09:32:41;;;;;;;2.24;2.04;;;;;;;20.05;63.43;101031.33;;;;-57
2021/10/16 09:35:42;;;;;;;2.42;2.17;;;;;;;20.09;63.46;101034.48;;;;-55
2021/10/16 09:38:42;;;;;;;2.31;2.04;;;;;;;20.14;63.41;101029.32;;;;-52
2021/10/16 09:41:42;;;;;;;3.03;2.10;;;;;;;20.15;63.37;101025.09;;;;-54
2021/10/16 09:44:44;;;;;;;2.27;2.07;;;;;;;20.18;63.37;101025.14;;;;-51
2021/10/16 09:47:41;;;;;;;2.35;2.15;;;;;;;20.19;63.28;101027.13;;;;-49
2021/10/16 09:50:41;;;;;;;3.55;2.02;;;;;;;20.21;63.48;101023.89;;;;-52
2021/10/16 09:53:42;;;;;;;2.65;2.02;;;;;;;20.25;63.35;101021.98;;;;-52
2021/10/16 09:56:41;;;;;;;3.53;1.99;;;;;;;20.28;63.36;101020.95;;;;-57
2021/10/16 09:59:42;;;;;;;2.28;1.92;;;;;;;20.30;63.33;101022.94;;;;-53
2021/10/16 10:02:41;;;;;;;2.67;1.90;;;;;;;20.32;63.21;101023.77;;;;-59
2021/10/16 10:05:41;;;;;;;3.64;1.98;;;;;;;20.36;63.18;101024.15;;;;-53
2021/10/16 10:08:42;;;;;;;5.62;2.05;;;;;;;20.39;62.91;101023.84;;;;-53
2021/10/16 10:11:45;;;;;;;7.17;2.07;;;;;;;20.36;62.26;101016.33;;;;-51
2021/10/16 10:14:42;;;;;;;2.93;1.85;;;;;;;20.36;62.07;101015.92;;;;-57
2021/10/16 10:17:41;;;;;;;3.03;1.96;;;;;;;20.37;61.98;101015.44;;;;-53
2021/10/16 10:20:41;;;;;;;2.48;1.91;;;;;;;20.37;62.02;101008.52;;;;-52
2021/10/16 10:23:42;;;;;;;2.89;1.85;;;;;;;20.39;62.02;101010.25;;;;-53
2021/10/16 10:26:42;;;;;;;3.03;2.10;;;;;;;20.39;62.02;101009.19;;;;-53
2021/10/16 10:29:42;;;;;;;1.96;1.80;;;;;;;20.39;62.03;101009.27;;;;-53
2021/10/16 10:32:43;;;;;;;2.95;1.97;;;;;;;20.40;62.07;101007.83;;;;-57
2021/10/16 10:35:41;;;;;;;2.62;1.60;;;;;;;20.41;62.09;101005.80;;;;-52
2021/10/16 10:38:42;;;;;;;2.05;1.78;;;;;;;20.42;62.03;101004.44;;;;-53
2021/10/16 10:41:41;;;;;;;3.06;1.95;;;;;;;20.44;62.12;101004.86;;;;-53
2021/10/16 10:44:42;;;;;;;2.95;1.95;;;;;;;20.45;62.07;101002.74;;;;-53
2021/10/16 10:47:41;;;;;;;2.31;1.75;;;;;;;20.46;62.03;100997.13;;;;-51
2021/10/16 10:50:41;;;;;;;3.37;1.81;;;;;;;20.46;62.11;100994.38;;;;-51
2021/10/16 10:53:42;;;;;;;2.83;1.83;;;;;;;20.48;62.01;100994.81;;;;-51
2021/10/16 10:56:42;;;;;;;3.99;1.84;;;;;;;20.52;62.34;100989.53;;;;-59
2021/10/16 10:59:42;;;;;;;1.99;1.77;;;;;;;20.55;62.42;100980.70;;;;-60
2021/10/16 11:02:41;;;;;;;3.51;1.80;;;;;;;20.57;62.54;100974.86;;;;-57
2021/10/16 11:05:41;;;;;;;1.77;1.64;;;;;;;20.61;62.55;100970.54;;;;-61
2021/10/16 11:08:42;;;;;;;4.11;1.69;;;;;;;20.64;62.51;100967.30;;;;-58
2021/10/16 11:11:41;;;;;;;3.43;1.65;;;;;;;20.66;62.32;100964.64;;;;-58
2021/10/16 11:14:42;;;;;;;4.47;1.60;;;;;;;20.69;62.50;100963.05;;;;-57
2021/10/16 11:17:42;;;;;;;2.69;1.71;;;;;;;20.72;62.44;100952.72;;;;-58
2021/10/16 11:20:42;;;;;;;1.69;1.59;;;;;;;20.75;62.46;100952.41;;;;-57
2021/10/16 11:23:41;;;;;;;2.71;1.73;;;;;;;20.78;62.51;100948.46;;;;-52
2021/10/16 11:26:41;;;;;;;3.05;1.83;;;;;;;20.79;62.43;100945.11;;;;-52
2021/10/16 11:29:42;;;;;;;3.51;1.87;;;;;;;20.81;62.41;100943.02;;;;-50
2021/10/16 11:32:41;;;;;;;2.72;1.63;;;;;;;20.83;62.45;100946.86;;;;-56
2021/10/16 11:35:42;;;;;;;4.14;1.71;;;;;;;20.84;62.49;100942.00;;;;-49
2021/10/16 11:38:41;;;;;;;1.87;1.71;;;;;;;20.86;62.49;100937.70;;;;-57
2021/10/16 11:41:41;;;;;;;2.34;1.85;;;;;;;20.87;62.64;100934.59;;;;-60
2021/10/16 11:44:42;;;;;;;3.09;1.69;;;;;;;20.89;62.57;100934.45;;;;-50
2021/10/16 11:47:42;;;;;;;2.17;1.59;;;;;;;20.91;62.54;100931.45;;;;-51
2021/10/16 11:50:41;;;;;;;2.02;1.69;;;;;;;20.92;62.58;100922.67;;;;-50
2021/10/16 11:53:44;;;;;;;1.91;1.71;;;;;;;20.93;62.52;100923.56;;;;-51
2021/10/16 11:56:41;;;;;;;2.24;1.67;;;;;;;20.94;62.60;100919.76;;;;-56
2021/10/16 11:59:42;;;;;;;2.05;1.79;;;;;;;20.94;62.14;100914.38;;;;-60
2021/10/16 12:02:41;;;;;;;1.61;1.50;;;;;;;20.94;62.06;100909.41;;;;-59
2021/10/16 12:05:42;;;;;;;2.15;1.59;;;;;;;20.94;62.06;100908.59;;;;-55
2021/10/16 12:08:41;;;;;;;1.93;1.71;;;;;;;20.93;62.04;100904.42;;;;-56
2021/10/16 12:11:42;;;;;;;1.69;1.59;;;;;;;20.93;61.98;100901.48;;;;-56
2021/10/16 12:14:42;;;;;;;1.90;1.62;;;;;;;20.92;61.92;100894.78;;;;-58
2021/10/16 12:17:41;;;;;;;1.65;1.55;;;;;;;20.92;61.90;100891.96;;;;-53
2021/10/16 12:20:41;;;;;;;1.95;1.62;;;;;;;20.92;61.89;100887.23;;;;-60
2021/10/16 12:23:41;;;;;;;1.74;1.50;;;;;;;20.92;61.93;100883.64;;;;-59
2021/10/16 12:26:41;;;;;;;1.59;1.49;;;;;;;20.92;61.86;100881.94;;;;-60
2021/10/16 12:29:42;;;;;;;1.70;1.60;;;;;;;20.93;61.86;100879.00;;;;-58
2021/10/16 12:32:41;;;;;;;1.60;1.50;;;;;;;20.92;61.86;100878.92;;;;-59
2021/10/16 12:35:41;;;;;;;1.62;1.52;;;;;;;20.92;61.85;100877.30;;;;-59
2021/10/16 12:38:42;;;;;;;1.94;1.59;;;;;;;20.93;61.84;100875.49;;;;-56
2021/10/16 12:41:41;;;;;;;3.17;1.60;;;;;;;20.93;61.82;100879.24;;;;-53
2021/10/16 12:44:42;;;;;;;2.76;1.71;;;;;;;20.93;61.82;100881.85;;;;-54
2021/10/16 12:47:41;;;;;;;2.12;1.58;;;;;;;20.93;61.81;100879.41;;;;-54
2021/10/16 12:50:41;;;;;;;1.63;1.53;;;;;;;20.93;61.81;100878.91;;;;-53
2021/10/16 12:53:42;;;;;;;2.09;1.61;;;;;;;20.94;61.82;100875.68;;;;-55
2021/10/16 12:56:41;;;;;;;2.67;1.71;;;;;;;20.94;61.80;100870.46;;;;-55
2021/10/16 12:59:42;;;;;;;1.74;1.63;;;;;;;20.95;61.84;100870.13;;;;-60
2021/10/16 13:02:41;;;;;;;1.99;1.68;;;;;;;20.95;61.85;100868.58;;;;-53
2021/10/16 13:05:42;;;;;;;1.80;1.64;;;;;;;20.95;61.77;100861.91;;;;-60
2021/10/16 13:08:42;;;;;;;1.69;1.59;;;;;;;20.95;61.82;100862.55;;;;-60
2021/10/16 13:11:41;;;;;;;1.71;1.61;;;;;;;20.96;61.75;100859.61;;;;-59
2021/10/16 13:14:42;;;;;;;1.77;1.55;;;;;;;20.96;61.76;100855.56;;;;-58
2021/10/16 13:17:41;;;;;;;2.89;1.68;;;;;;;20.97;61.74;100851.98;;;;-58
2021/10/16 13:20:41;;;;;;;1.81;1.70;;;;;;;20.97;61.78;100851.73;;;;-56
2021/10/16 13:23:41;;;;;;;1.61;1.51;;;;;;;20.97;61.74;100853.20;;;;-56
2021/10/16 13:26:41;;;;;;;1.61;1.51;;;;;;;20.97;61.78;100848.14;;;;-56
2021/10/16 13:29:42;;;;;;;2.10;1.63;;;;;;;20.97;61.77;100840.97;;;;-56
2021/10/16 13:32:41;;;;;;;1.60;1.50;;;;;;;20.98;61.72;100840.51;;;;-56
2021/10/16 13:35:41;;;;;;;1.57;1.47;;;;;;;20.98;61.78;100839.45;;;;-56
2021/10/16 13:38:41;;;;;;;1.68;1.58;;;;;;;20.99;61.72;100835.86;;;;-59
2021/10/16 13:41:41;;;;;;;1.81;1.64;;;;;;;20.98;61.78;100835.61;;;;-59
2021/10/16 13:44:42;;;;;;;1.75;1.60;;;;;;;20.99;61.77;100829.50;;;;-60
2021/10/16 13:47:41;;;;;;;1.60;1.50;;;;;;;20.99;61.73;100830.31;;;;-56
2021/10/16 13:50:42;;;;;;;1.75;1.61;;;;;;;20.99;61.73;100829.02;;;;-55
2021/10/16 13:53:41;;;;;;;2.93;1.61;;;;;;;20.98;61.89;100825.44;;;;-58
2021/10/16 13:56:41;;;;;;;3.05;2.47;;;;;;;20.98;61.57;100825.35;;;;-54
2021/10/16 13:59:42;;;;;;;6.63;3.84;;;;;;;20.97;61.15;100826.39;;;;-58
2021/10/16 14:02:41;;;;;;;7.13;4.09;;;;;;;20.96;60.33;100823.44;;;;-59
2021/10/16 14:05:41;;;;;;;8.57;5.03;;;;;;;20.95;60.46;100821.65;;;;-57
2021/10/16 14:08:41;;;;;;;8.59;4.99;;;;;;;20.95;60.70;100820.02;;;;-49
2021/10/16 14:11:41;;;;;;;10.08;5.22;;;;;;;20.95;60.77;100817.33;;;;-60
2021/10/16 14:14:41;;;;;;;8.37;5.32;;;;;;;20.95;60.08;100813.67;;;;-57
2021/10/16 14:17:41;;;;;;;8.21;4.49;;;;;;;20.99;60.45;100816.47;;;;-50
2021/10/16 14:20:41;;;;;;;6.81;3.90;;;;;;;20.99;60.68;100813.37;;;;-52
2021/10/16 14:23:42;;;;;;;8.99;4.23;;;;;;;21.00;60.88;100809.23;;;;-52
2021/10/16 14:26:42;;;;;;;6.71;3.81;;;;;;;21.00;60.96;100807.68;;;;-52
2021/10/16 14:29:42;;;;;;;6.34;3.56;;;;;;;21.01;61.05;100806.45;;;;-50
2021/10/16 14:32:41;;;;;;;6.24;3.80;;;;;;;21.00;61.05;100807.03;;;;-51
2021/10/16 14:35:41;;;;;;;7.35;3.72;;;;;;;21.01;61.11;100808.81;;;;-50
2021/10/16 14:38:42;;;;;;;7.25;3.69;;;;;;;21.01;61.16;100806.94;;;;-56
2021/10/16 14:41:41;;;;;;;6.59;3.68;;;;;;;21.01;61.24;100804.25;;;;-57
2021/10/16 14:44:42;;;;;;;5.22;3.43;;;;;;;21.02;61.24;100807.02;;;;-57
2021/10/16 14:47:41;;;;;;;4.56;3.31;;;;;;;21.02;61.25;100807.02;;;;-58
2021/10/16 14:50:41;;;;;;;5.86;3.51;;;;;;;21.02;61.25;100808.72;;;;-57
2021/10/16 14:53:41;;;;;;;5.73;3.39;;;;;;;21.02;61.30;100805.58;;;;-59
2021/10/16 14:56:42;;;;;;;5.69;3.33;;;;;;;21.02;61.37;100807.91;;;;-62
2021/10/16 14:59:42;;;;;;;4.89;3.33;;;;;;;21.04;61.52;100807.43;;;;-60
2021/10/16 15:02:42;;;;;;;5.35;3.33;;;;;;;21.06;61.75;100810.00;;;;-58
2021/10/16 15:05:41;;;;;;;9.87;3.90;;;;;;;21.09;61.77;100806.41;;;;-60
2021/10/16 15:08:41;;;;;;;8.84;3.48;;;;;;;21.09;61.52;100809.59;;;;-59
2021/10/16 15:11:41;;;;;;;6.94;3.49;;;;;;;21.09;61.46;100808.62;;;;-60
2021/10/16 15:14:42;;;;;;;7.73;3.54;;;;;;;21.09;61.46;100809.59;;;;-59
2021/10/16 15:17:41;;;;;;;6.83;3.45;;;;;;;21.07;61.48;100811.05;;;;-58
2021/10/16 15:20:41;;;;;;;4.91;3.23;;;;;;;21.08;61.43;100815.93;;;;-59
2021/10/16 15:23:41;;;;;;;4.85;3.28;;;;;;;21.08;61.48;100815.77;;;;-59
2021/10/16 15:26:41;;;;;;;6.37;3.34;;;;;;;21.07;61.48;100813.98;;;;-50
2021/10/16 15:29:41;;;;;;;5.59;3.37;;;;;;;21.09;61.80;100813.75;;;;-51
2021/10/16 15:32:41;;;;;;;5.67;3.16;;;;;;;21.11;61.93;100816.13;;;;-54
2021/10/16 15:35:41;;;;;;;4.60;3.33;;;;;;;21.11;62.00;100817.75;;;;-52
2021/10/16 15:38:41;;;;;;;5.61;3.39;;;;;;;21.12;62.04;100815.88;;;;-49
2021/10/16 15:41:41;;;;;;;6.33;3.32;;;;;;;21.15;62.19;100818.27;;;;-50
2021/10/16 15:44:42;;;;;;;6.22;3.38;;;;;;;21.16;62.25;100815.00;;;;-58
2021/10/16 15:47:41;;;;;;;5.65;3.00;;;;;;;21.17;62.30;100815.34;;;;-57
2021/10/16 15:50:41;;;;;;;4.75;3.03;;;;;;;21.18;62.30;100815.58;;;;-55
2021/10/16 15:53:42;;;;;;;5.75;3.07;;;;;;;21.20;62.22;100817.88;;;;-54
2021/10/16 15:56:41;;;;;;;5.37;2.89;;;;;;;21.22;62.34;100816.50;;;;-59
2021/10/16 15:59:41;;;;;;;5.91;3.17;;;;;;;21.23;62.41;100816.73;;;;-54
2021/10/16 16:02:41;;;;;;;5.72;3.07;;;;;;;21.24;62.51;100820.34;;;;-52
2021/10/16 16:05:41;;;;;;;6.57;3.42;;;;;;;21.25;62.46;100823.78;;;;-53
2021/10/16 16:08:42;;;;;;;3.63;2.90;;;;;;;21.26;62.61;100823.94;;;;-57
2021/10/16 16:11:41;;;;;;;4.67;3.11;;;;;;;21.26;62.45;100819.70;;;;-51
2021/10/16 16:14:42;;;;;;;4.36;3.03;;;;;;;21.28;62.46;100824.03;;;;-51
2021/10/16 16:17:41;;;;;;;4.79;3.03;;;;;;;21.27;62.44;100823.03;;;;-50
2021/10/16 16:20:41;;;;;;;5.18;3.11;;;;;;;21.27;62.36;100820.83;;;;-51
2021/10/16 16:23:41;;;;;;;5.43;2.77;;;;;;;21.27;62.61;100819.61;;;;-57
2021/10/16 16:26:41;;;;;;;6.91;3.32;;;;;;;21.28;62.55;100822.80;;;;-56
2021/10/16 16:29:42;;;;;;;4.02;2.77;;;;;;;21.30;62.55;100826.56;;;;-53
2021/10/16 16:32:41;;;;;;;3.62;2.69;;;;;;;21.31;62.40;100825.98;;;;-58
2021/10/16 16:35:41;;;;;;;4.96;3.11;;;;;;;21.32;62.45;100825.44;;;;-56
2021/10/16 16:38:42;;;;;;;6.61;2.92;;;;;;;21.32;62.38;100823.64;;;;-47
2021/10/16 16:41:41;;;;;;;3.80;2.75;;;;;;;21.33;62.31;100822.11;;;;-54
2021/10/16 16:44:42;;;;;;;4.28;2.89;;;;;;;21.34;62.30;100825.28;;;;-52